createdAt,value
2018-11-10T00:01:19.746Z,7.75
2018-11-10T00:04:31.335Z,8.93
2018-11-10T00:07:42.912Z,6.62
2018-11-10T00:10:54.458Z,7.78
2018-11-10T00:14:06.515Z,7.72
2018-11-10T00:17:17.880Z,7.00
2018-11-10T00:20:29.444Z,6.83
2018-11-10T00:23:41.331Z,9.95
2018-11-10T00:26:53.378Z,6.80
2018-11-10T00:30:05.760Z,5.22
2018-11-10T00:33:16.850Z,6.50
2018-11-10T00:36:28.962Z,9.00
2018-11-10T00:39:40.965Z,7.40
2018-11-10T00:42:51.994Z,6.73
2018-11-10T00:46:04.795Z,7.12
2018-11-10T00:49:16.161Z,8.18
2018-11-10T00:52:27.418Z,7.93
2018-11-10T00:55:38.843Z,8.07
2018-11-10T00:58:50.975Z,6.17
2018-11-10T01:02:02.838Z,7.45
2018-11-10T01:05:14.162Z,7.10
2018-11-10T01:08:25.919Z,8.17
2018-11-10T01:11:37.226Z,7.07
2018-11-10T01:14:48.667Z,9.33
2018-11-10T01:18:00.678Z,9.10
2018-11-10T01:21:12.810Z,9.97
2018-11-10T01:24:24.000Z,11.25
2018-11-10T01:27:35.978Z,10.40
2018-11-10T01:30:48.071Z,11.88
2018-11-10T01:33:59.570Z,11.30
2018-11-10T01:37:11.123Z,10.20
2018-11-10T01:40:22.214Z,10.90
2018-11-10T01:43:33.319Z,10.33
2018-11-10T01:46:45.080Z,11.20
2018-11-10T01:49:56.560Z,13.05
2018-11-10T01:53:08.034Z,11.83
2018-11-10T01:56:19.776Z,10.27
2018-11-10T01:59:31.783Z,13.75
2018-11-10T02:02:44.248Z,13.90
2018-11-10T02:05:57.178Z,14.98
2018-11-10T02:09:10.670Z,12.18
2018-11-10T02:12:22.270Z,7.50
2018-11-10T02:15:33.861Z,7.87
2018-11-10T02:18:44.939Z,6.50
2018-11-10T02:21:56.108Z,5.90
2018-11-10T02:25:08.980Z,6.00
2018-11-10T02:28:21.318Z,6.80
2018-11-10T02:31:33.468Z,7.30
2018-11-10T02:34:45.216Z,7.70
2018-11-10T02:37:56.481Z,6.77
2018-11-10T02:41:07.746Z,5.97
2018-11-10T02:44:19.734Z,7.45
2018-11-10T02:47:31.130Z,7.97
2018-11-10T02:50:43.136Z,7.65
2018-11-10T02:53:53.956Z,6.50
2018-11-10T02:57:07.026Z,7.47
2018-11-10T03:00:19.357Z,8.43
2018-11-10T03:03:31.393Z,6.05
2018-11-10T03:06:42.615Z,7.93
2018-11-10T03:09:54.219Z,7.45
2018-11-10T03:13:06.074Z,6.30
2018-11-10T03:16:17.868Z,7.65
2018-11-10T03:19:29.201Z,6.97
2018-11-10T03:22:41.101Z,5.90
2018-11-10T03:25:52.355Z,7.03
2018-11-10T03:29:03.651Z,7.78
2018-11-10T03:32:15.081Z,6.93
2018-11-10T03:35:26.368Z,6.23
2018-11-10T03:38:37.482Z,5.77
2018-11-10T03:41:50.171Z,6.65
2018-11-10T03:45:01.600Z,8.00
2018-11-10T03:48:13.531Z,8.40
2018-11-10T03:51:25.384Z,6.40
2018-11-10T03:54:36.822Z,7.50
2018-11-10T03:57:47.936Z,6.80
2018-11-10T04:00:59.385Z,6.50
2018-11-10T04:04:11.311Z,7.60
2018-11-10T04:07:22.895Z,7.60
2018-11-10T04:10:34.744Z,8.05
2018-11-10T04:13:45.835Z,9.47
2018-11-10T04:16:58.201Z,8.03
2018-11-10T04:20:10.672Z,8.83
2018-11-10T04:23:22.099Z,9.87
2018-11-10T04:26:33.555Z,7.30
2018-11-10T04:29:44.466Z,6.90
2018-11-10T04:32:56.357Z,7.87
2018-11-10T04:36:08.227Z,7.80
2018-11-10T04:43:12.754Z,5.70
2018-11-10T04:46:24.017Z,6.30
2018-11-10T04:49:35.790Z,5.92
2018-11-10T04:52:47.320Z,5.90
2018-11-10T04:55:59.323Z,5.90
2018-11-10T04:59:11.043Z,6.42
2018-11-10T05:02:23.101Z,6.03
2018-11-10T05:05:35.140Z,5.40
2018-11-10T05:08:46.998Z,6.33
2018-11-10T05:11:58.411Z,5.50
2018-11-10T05:15:11.355Z,5.73
2018-11-10T05:22:06.055Z,5.67
2018-11-10T05:25:17.436Z,6.30
2018-11-10T05:28:28.704Z,5.10
2018-11-10T05:31:50.328Z,5.55
2018-11-10T05:35:02.196Z,5.17
2018-11-10T05:38:14.361Z,4.55
2018-11-10T05:41:25.410Z,5.03
2018-11-10T05:44:37.062Z,4.90
2018-11-10T05:47:48.769Z,4.00
2018-11-10T05:51:00.473Z,4.70
2018-11-10T05:54:11.932Z,4.25
2018-11-10T05:57:23.039Z,4.57
2018-11-10T06:00:34.326Z,5.33
2018-11-10T06:03:46.391Z,6.10
2018-11-10T06:06:57.515Z,5.10
2018-11-10T06:10:10.949Z,5.97
2018-11-10T06:13:22.396Z,5.77
2018-11-10T06:16:33.749Z,8.03
2018-11-10T06:19:45.099Z,5.43
2018-11-10T06:22:56.514Z,6.12
2018-11-10T06:26:07.942Z,5.63
2018-11-10T06:29:19.235Z,5.78
2018-11-10T06:32:30.922Z,5.90
2018-11-10T06:35:42.740Z,5.00
2018-11-10T06:38:53.646Z,4.17
2018-11-10T06:42:05.911Z,5.03
2018-11-10T06:45:17.251Z,4.17
2018-11-10T06:48:28.375Z,3.92
2018-11-10T06:51:40.112Z,4.10
2018-11-10T06:54:51.364Z,3.65
2018-11-10T06:58:02.819Z,3.90
2018-11-10T07:01:14.466Z,4.33
2018-11-10T07:04:52.744Z,4.22
2018-11-10T07:08:04.905Z,4.20
2018-11-10T07:11:16.139Z,3.70
2018-11-10T07:14:27.503Z,4.37
2018-11-10T07:17:38.842Z,4.40
2018-11-10T07:20:50.588Z,4.78
2018-11-10T07:24:02.482Z,3.53
2018-11-10T07:27:14.511Z,4.28
2018-11-10T07:30:25.997Z,4.60
2018-11-10T07:33:37.329Z,4.47
2018-11-10T07:36:49.568Z,4.17
2018-11-10T07:40:01.437Z,3.37
2018-11-10T07:43:12.875Z,4.10
2018-11-10T07:46:24.466Z,3.50
2018-11-10T07:49:35.816Z,3.80
2018-11-10T07:52:47.589Z,3.20
2018-11-10T07:55:59.138Z,4.17
2018-11-10T07:59:10.773Z,3.98
2018-11-10T08:02:22.113Z,3.10
2018-11-10T08:05:33.541Z,3.87
2018-11-10T08:08:45.035Z,3.97
2018-11-10T08:11:56.521Z,3.37
2018-11-10T08:15:12.014Z,3.20
2018-11-10T08:18:23.332Z,3.03
2018-11-10T08:21:35.386Z,6.23
2018-11-10T08:24:47.022Z,3.37
2018-11-10T08:27:58.939Z,4.50
2018-11-10T08:31:10.700Z,2.80
2018-11-10T08:34:22.254Z,3.30
2018-11-10T08:37:34.725Z,3.52
2018-11-10T08:40:46.058Z,4.40
2018-11-10T08:43:57.074Z,4.57
2018-11-10T08:47:09.588Z,3.05
2018-11-10T08:50:21.401Z,3.30
2018-11-10T08:53:33.354Z,2.30
2018-11-10T08:56:45.496Z,2.60
2018-11-10T08:59:57.384Z,3.17
2018-11-10T09:03:10.088Z,3.98
2018-11-10T09:06:21.085Z,3.67
2018-11-10T09:09:32.571Z,2.83
2018-11-10T09:12:44.208Z,3.67
2018-11-10T09:15:57.745Z,3.30
2018-11-10T09:19:09.392Z,2.70
2018-11-10T09:22:20.621Z,3.80
2018-11-10T09:25:33.242Z,3.10
2018-11-10T09:28:45.362Z,3.60
2018-11-10T09:31:57.266Z,3.87
2018-11-10T09:35:11.015Z,4.15
2018-11-10T09:38:22.726Z,2.50
2018-11-10T09:41:33.834Z,3.15
2018-11-10T09:44:45.236Z,2.90
2018-11-10T09:47:57.368Z,2.50
2018-11-10T09:51:08.598Z,3.27
2018-11-10T09:54:20.767Z,2.65
2018-11-10T09:57:32.307Z,3.20
2018-11-10T10:00:44.079Z,2.77
2018-11-10T10:03:55.724Z,3.72
2018-11-10T10:07:07.966Z,3.35
2018-11-10T10:10:20.188Z,3.47
2018-11-10T10:13:31.315Z,2.98
2018-11-10T10:16:43.207Z,2.65
2018-11-10T10:19:55.460Z,2.47
2018-11-10T10:23:06.871Z,3.70
2018-11-10T10:26:19.936Z,3.62
2018-11-10T10:29:31.235Z,3.50
2018-11-10T10:32:45.136Z,3.45
2018-11-10T10:35:57.903Z,4.05
2018-11-10T10:39:09.985Z,3.40
2018-11-10T10:42:22.037Z,3.40
2018-11-10T10:45:33.492Z,4.72
2018-11-10T10:48:44.665Z,4.90
2018-11-10T10:51:56.760Z,5.75
2018-11-10T10:55:08.785Z,5.08
2018-11-10T10:58:20.039Z,5.03
2018-11-10T11:01:36.336Z,6.03
2018-11-10T11:04:53.068Z,8.60
2018-11-10T11:08:04.567Z,7.00
2018-11-10T11:11:16.811Z,6.62
2018-11-10T11:14:27.873Z,15.50
2018-11-10T11:17:38.931Z,9.25
2018-11-10T11:20:51.289Z,8.10
2018-11-10T11:24:02.757Z,9.63
2018-11-10T11:27:14.237Z,7.83
2018-11-10T11:30:26.765Z,8.05
2018-11-10T11:33:38.013Z,7.97
2018-11-10T11:36:50.262Z,8.00
2018-11-10T11:40:02.223Z,8.00
2018-11-10T11:43:13.232Z,10.20
2018-11-10T11:46:24.633Z,7.53
2018-11-10T11:49:35.858Z,9.65
2018-11-10T11:52:48.456Z,7.17
2018-11-10T11:55:59.798Z,8.83
2018-11-10T11:59:11.426Z,6.87
2018-11-10T12:02:23.484Z,6.72
2018-11-10T12:05:35.660Z,6.62
2018-11-10T12:08:47.992Z,8.48
2018-11-10T12:11:59.968Z,7.08
2018-11-10T12:15:13.231Z,8.48
2018-11-10T12:18:25.811Z,6.25
2018-11-10T12:21:37.554Z,6.42
2018-11-10T12:24:49.678Z,4.55
2018-11-10T12:28:01.274Z,6.05
2018-11-10T12:31:33.789Z,5.50
2018-11-10T12:34:45.448Z,7.28
2018-11-10T12:37:56.856Z,6.87
2018-11-10T12:41:08.742Z,5.95
2018-11-10T12:44:19.976Z,4.87
2018-11-10T12:47:31.752Z,5.00
2018-11-10T12:50:43.958Z,7.75
2018-11-10T12:53:55.443Z,5.33
2018-11-10T12:57:07.500Z,7.83
2018-11-10T13:00:20.012Z,6.60
2018-11-10T13:03:37.718Z,6.08
2018-11-10T13:06:51.231Z,6.53
2018-11-10T13:10:02.961Z,5.25
2018-11-10T13:13:15.237Z,7.50
2018-11-10T13:16:26.433Z,6.22
2018-11-10T13:23:52.555Z,6.15
2018-11-10T13:27:04.536Z,5.30
2018-11-10T13:30:16.406Z,4.78
2018-11-10T13:33:29.309Z,5.00
2018-11-10T13:36:40.496Z,4.60
2018-11-10T13:39:53.197Z,4.30
2018-11-10T13:43:06.499Z,5.22
2018-11-10T13:46:18.670Z,4.35
2018-11-10T13:49:29.816Z,5.45
2018-11-10T13:52:42.481Z,4.55
2018-11-10T13:55:54.560Z,9.58
2018-11-10T13:59:07.534Z,5.50
2018-11-10T14:02:20.118Z,6.72
2018-11-10T14:05:32.988Z,6.30
2018-11-10T14:08:44.439Z,6.28
2018-11-10T14:12:06.877Z,6.37
2018-11-10T14:15:18.761Z,6.95
2018-11-10T14:18:30.494Z,6.03
2018-11-10T14:21:42.558Z,8.63
2018-11-10T14:24:54.746Z,11.30
2018-11-10T14:28:06.616Z,7.45
2018-11-10T14:31:18.379Z,5.60
2018-11-10T14:34:30.389Z,8.18
2018-11-10T14:37:42.190Z,7.80
2018-11-10T14:40:53.451Z,11.48
2018-11-10T14:44:05.770Z,7.30
2018-11-10T14:47:17.911Z,6.90
2018-11-10T14:50:29.118Z,7.90
2018-11-10T14:53:40.454Z,14.20
2018-11-10T14:56:52.045Z,11.40
2018-11-10T15:00:04.794Z,10.65
2018-11-10T15:03:16.169Z,8.00
2018-11-10T15:06:28.176Z,9.48
2018-11-10T15:09:39.652Z,11.53
2018-11-10T15:12:51.022Z,6.47
2018-11-10T15:16:02.895Z,8.05
2018-11-10T15:19:14.682Z,7.95
2018-11-10T15:22:27.065Z,7.90
2018-11-10T15:25:38.220Z,7.08
2018-11-10T15:28:49.406Z,8.65
2018-11-10T15:32:01.727Z,9.28
2018-11-10T15:35:15.220Z,6.47
2018-11-10T15:38:27.790Z,9.80
2018-11-10T15:41:40.114Z,8.13
2018-11-10T15:44:51.161Z,7.75
2018-11-10T15:48:02.312Z,8.70
2018-11-10T15:51:14.321Z,9.80
2018-11-10T15:54:26.850Z,13.70
2018-11-10T15:57:39.323Z,18.48
2018-11-10T16:00:51.146Z,7.90
2018-11-10T16:04:03.872Z,7.72
2018-11-10T16:10:32.244Z,8.43
2018-11-10T16:13:43.350Z,9.30
2018-11-10T16:16:54.531Z,7.30
2018-11-10T16:20:08.877Z,8.25
2018-11-10T16:23:20.422Z,8.13
2018-11-10T16:26:32.370Z,6.35
2018-11-10T16:29:43.526Z,7.80
2018-11-10T16:32:55.533Z,6.92
2018-11-10T16:36:07.161Z,5.78
2018-11-10T16:39:21.985Z,6.87
2018-11-10T16:42:33.481Z,8.43
2018-11-10T16:45:48.604Z,5.22
2018-11-10T16:49:01.522Z,5.97
2018-11-10T16:52:14.582Z,5.85
2018-11-10T16:55:28.964Z,8.45
2018-11-10T16:58:41.463Z,7.85
2018-11-10T17:01:54.778Z,5.72
2018-11-10T17:05:08.852Z,10.00
2018-11-10T17:08:22.370Z,10.20
2018-11-10T17:11:37.043Z,9.45
2018-11-10T17:14:52.798Z,8.98
2018-11-10T17:18:04.062Z,6.67
2018-11-10T17:21:15.975Z,8.55
2018-11-10T17:24:27.178Z,14.40
2018-11-10T17:27:38.813Z,29.12
2018-11-10T17:30:53.640Z,11.12
2018-11-10T17:34:07.637Z,9.43
2018-11-10T17:37:22.654Z,13.18
2018-11-10T17:40:36.875Z,11.43
2018-11-10T17:43:50.790Z,13.45
2018-11-10T17:47:04.274Z,11.35
2018-11-10T17:50:17.825Z,15.43
2018-11-10T17:53:30.096Z,11.60
2018-11-10T17:56:51.289Z,10.75
2018-11-10T18:00:04.922Z,6.92
2018-11-10T18:03:17.469Z,9.28
2018-11-10T18:06:28.628Z,8.20
2018-11-10T18:09:39.699Z,7.35
2018-11-10T18:12:51.117Z,7.45
2018-11-10T18:16:02.913Z,6.12
2018-11-10T18:19:14.775Z,8.85
2018-11-10T18:22:26.395Z,8.88
2018-11-10T18:25:37.950Z,7.72
2018-11-10T18:28:49.900Z,8.33
2018-11-10T18:32:01.121Z,7.75
2018-11-10T18:35:14.006Z,6.92
2018-11-10T18:38:26.699Z,5.70
2018-11-10T18:41:37.918Z,6.12
2018-11-10T18:44:49.471Z,5.83
2018-11-10T18:48:01.397Z,6.85
2018-11-10T18:51:15.231Z,7.70
2018-11-10T18:54:27.200Z,7.30
2018-11-10T18:57:39.120Z,5.90
2018-11-10T19:00:51.018Z,6.37
2018-11-10T19:04:02.854Z,8.28
2018-11-10T19:07:14.533Z,6.47
2018-11-10T19:10:25.743Z,6.87
2018-11-10T19:13:37.416Z,6.80
2018-11-10T19:16:48.935Z,6.50
2018-11-10T19:20:01.165Z,4.80
2018-11-10T19:23:13.477Z,5.87
2018-11-10T19:26:25.464Z,5.92
2018-11-10T19:29:37.340Z,5.35
2018-11-10T19:32:50.467Z,6.10
2018-11-10T19:36:02.255Z,6.55
2018-11-10T19:39:14.266Z,6.90
2018-11-10T19:42:26.113Z,5.33
2018-11-10T19:45:37.880Z,7.35
2018-11-10T19:48:49.559Z,6.50
2018-11-10T19:52:01.200Z,9.03
2018-11-10T19:55:15.035Z,6.17
2018-11-10T19:58:26.552Z,5.28
2018-11-10T20:01:38.033Z,4.95
2018-11-10T20:04:50.965Z,7.05
2018-11-10T20:08:02.074Z,6.00
2018-11-10T20:11:13.118Z,5.62
2018-11-10T20:14:25.175Z,5.53
2018-11-10T20:17:37.134Z,5.22
2018-11-10T20:20:50.272Z,5.72
2018-11-10T20:24:01.962Z,4.83
2018-11-10T20:27:13.554Z,5.12
2018-11-10T20:30:25.757Z,5.50
2018-11-10T20:33:37.150Z,5.00
2018-11-10T20:36:48.974Z,4.35
2018-11-10T20:40:01.022Z,5.87
2018-11-10T20:43:12.797Z,6.17
2018-11-10T20:46:24.475Z,5.92
2018-11-10T20:49:36.203Z,6.15
2018-11-10T20:52:47.379Z,6.30
2018-11-10T20:55:58.675Z,5.40
2018-11-10T20:59:10.508Z,3.90
2018-11-10T21:02:22.055Z,4.95
2018-11-10T21:05:34.317Z,6.72
2018-11-10T21:08:47.223Z,5.00
2018-11-10T21:11:58.754Z,5.28
2018-11-10T21:15:11.066Z,4.58
2018-11-10T21:18:23.241Z,5.67
2018-11-10T21:21:35.293Z,5.45
2018-11-10T21:24:46.351Z,6.12
2018-11-10T21:27:57.378Z,7.05
2018-11-10T21:31:08.443Z,5.50
2018-11-10T21:34:19.600Z,5.53
2018-11-10T21:37:30.675Z,5.12
2018-11-10T21:40:42.474Z,6.25
2018-11-10T21:43:53.810Z,5.42
2018-11-10T21:47:06.485Z,4.95
2018-11-10T21:50:19.296Z,8.18
2018-11-10T21:53:30.482Z,6.58
2018-11-10T21:56:42.159Z,5.42
2018-11-10T21:59:53.149Z,4.65
2018-11-10T22:03:04.331Z,6.20
2018-11-10T22:06:17.147Z,6.33
2018-11-10T22:09:28.486Z,4.87
2018-11-10T22:12:39.920Z,5.62
2018-11-10T22:15:51.781Z,5.80
2018-11-10T22:19:04.001Z,4.78
2018-11-10T22:22:15.289Z,4.55
2018-11-10T22:25:26.814Z,4.65
2018-11-10T22:28:38.340Z,6.85
2018-11-10T22:31:49.323Z,5.03
2018-11-10T22:35:01.166Z,5.67
2018-11-10T22:38:13.918Z,5.22
2018-11-10T22:41:26.161Z,5.45
2018-11-10T22:44:38.486Z,5.55
2018-11-10T22:47:50.688Z,4.50
2018-11-10T22:51:02.429Z,5.28
2018-11-10T22:54:14.094Z,6.97
2018-11-10T22:57:26.076Z,6.30
2018-11-10T23:00:42.294Z,7.47
2018-11-10T23:03:53.805Z,8.18
2018-11-10T23:07:06.583Z,5.72
2018-11-10T23:10:18.072Z,8.23
2018-11-10T23:13:29.815Z,9.30
2018-11-10T23:16:41.259Z,7.75
2018-11-10T23:19:52.716Z,7.85
2018-11-10T23:23:03.877Z,7.45
2018-11-10T23:26:15.670Z,10.20
2018-11-10T23:29:28.040Z,7.50
2018-11-10T23:32:40.451Z,6.90
2018-11-10T23:35:51.755Z,7.00
2018-11-10T23:39:03.184Z,6.55
2018-11-10T23:42:14.674Z,6.12
2018-11-10T23:45:28.612Z,6.47
2018-11-10T23:48:39.839Z,7.17
2018-11-10T23:51:51.630Z,6.55
2018-11-10T23:55:03.595Z,7.47
2018-11-10T23:58:15.576Z,7.37
